sensor_id;sensor_type;location;lat;lon;timestamp;temperature;humidity
23143;DHT22;11740;51.168;4.112;2023-11-21T00:01:06;7.10;1.00
23143;DHT22;11740;51.168;4.112;2023-11-21T00:03:35;7.20;47.80
23143;DHT22;11740;51.168;4.112;2023-11-21T00:06:03;7.10;61.80
23143;DHT22;11740;51.168;4.112;2023-11-21T00:08:30;7.10;99.90
23143;DHT22;11740;51.168;4.112;2023-11-21T00:10:57;7.20;99.90
23143;DHT22;11740;51.168;4.112;2023-11-21T00:13:27;7.20;99.90
23143;DHT22;11740;51.168;4.112;2023-11-21T00:15:54;7.20;99.90
23143;DHT22;11740;51.168;4.112;2023-11-21T00:18:21;7.30;99.90
23143;DHT22;11740;51.168;4.112;2023-11-21T00:20:48;7.20;99.90
23143;DHT22;11740;51.168;4.112;2023-11-21T00:23:14;7.20;99.90
23143;DHT22;11740;51.168;4.112;2023-11-21T00:25:41;7.20;99.90
23143;DHT22;11740;51.168;4.112;2023-11-21T00:28:08;7.30;99.90
23143;DHT22;11740;51.168;4.112;2023-11-21T00:30:35;7.40;1.00
23143;DHT22;11740;51.168;4.112;2023-11-21T00:33:02;7.40;1.00
23143;DHT22;11740;51.168;4.112;2023-11-21T00:35:29;7.30;1.00
23143;DHT22;11740;51.168;4.112;2023-11-21T00:37:56;7.30;1.00
23143;DHT22;11740;51.168;4.112;2023-11-21T00:40:24;7.30;1.00
23143;DHT22;11740;51.168;4.112;2023-11-21T00:42:51;7.40;1.00
23143;DHT22;11740;51.168;4.112;2023-11-21T00:45:18;7.40;1.00
23143;DHT22;11740;51.168;4.112;2023-11-21T00:47:45;7.40;1.00
23143;DHT22;11740;51.168;4.112;2023-11-21T00:50:11;7.40;1.00
23143;DHT22;11740;51.168;4.112;2023-11-21T00:52:38;7.40;1.00
23143;DHT22;11740;51.168;4.112;2023-11-21T00:55:05;7.40;1.00
23143;DHT22;11740;51.168;4.112;2023-11-21T00:57:34;7.50;1.00
23143;DHT22;11740;51.168;4.112;2023-11-21T01:00:01;7.50;1.00
23143;DHT22;11740;51.168;4.112;2023-11-21T01:02:33;7.50;1.00
23143;DHT22;11740;51.168;4.112;2023-11-21T01:05:02;7.50;1.00
23143;DHT22;11740;51.168;4.112;2023-11-21T01:07:30;7.40;1.00
23143;DHT22;11740;51.168;4.112;2023-11-21T01:09:57;7.40;1.00
23143;DHT22;11740;51.168;4.112;2023-11-21T01:12:24;7.50;1.00
23143;DHT22;11740;51.168;4.112;2023-11-21T01:14:51;7.40;1.00
23143;DHT22;11740;51.168;4.112;2023-11-21T01:17:18;7.50;1.00
23143;DHT22;11740;51.168;4.112;2023-11-21T01:19:45;7.50;1.00
23143;DHT22;11740;51.168;4.112;2023-11-21T01:22:12;7.50;1.00
23143;DHT22;11740;51.168;4.112;2023-11-21T01:24:39;7.60;1.00
23143;DHT22;11740;51.168;4.112;2023-11-21T01:27:06;7.60;1.00
23143;DHT22;11740;51.168;4.112;2023-11-21T01:29:33;7.60;1.00
23143;DHT22;11740;51.168;4.112;2023-11-21T01:32:02;7.60;1.00
23143;DHT22;11740;51.168;4.112;2023-11-21T01:34:30;7.60;12.50
23143;DHT22;11740;51.168;4.112;2023-11-21T01:36:57;7.60;13.70
23143;DHT22;11740;51.168;4.112;2023-11-21T01:39:24;7.70;45.30
23143;DHT22;11740;51.168;4.112;2023-11-21T01:41:52;7.70;66.00
23143;DHT22;11740;51.168;4.112;2023-11-21T01:44:19;7.70;76.60
23143;DHT22;11740;51.168;4.112;2023-11-21T01:46:46;7.60;69.50
23143;DHT22;11740;51.168;4.112;2023-11-21T01:49:14;7.70;81.80
23143;DHT22;11740;51.168;4.112;2023-11-21T01:51:42;7.70;99.90
23143;DHT22;11740;51.168;4.112;2023-11-21T01:54:10;7.70;99.90
23143;DHT22;11740;51.168;4.112;2023-11-21T01:56:45;7.70;99.90
23143;DHT22;11740;51.168;4.112;2023-11-21T01:59:13;7.60;99.90
23143;DHT22;11740;51.168;4.112;2023-11-21T02:01:47;7.60;99.90
23143;DHT22;11740;51.168;4.112;2023-11-21T02:04:14;7.60;99.90
23143;DHT22;11740;51.168;4.112;2023-11-21T02:06:42;7.70;99.90
23143;DHT22;11740;51.168;4.112;2023-11-21T02:09:09;7.60;98.80
23143;DHT22;11740;51.168;4.112;2023-11-21T02:11:36;7.60;99.90
23143;DHT22;11740;51.168;4.112;2023-11-21T02:14:05;7.60;84.30
23143;DHT22;11740;51.168;4.112;2023-11-21T02:16:35;7.60;59.10
23143;DHT22;11740;51.168;4.112;2023-11-21T02:19:03;7.60;75.10
23143;DHT22;11740;51.168;4.112;2023-11-21T02:21:31;7.60;39.70
23143;DHT22;11740;51.168;4.112;2023-11-21T02:23:58;7.60;30.60
23143;DHT22;11740;51.168;4.112;2023-11-21T02:26:25;7.60;35.50
23143;DHT22;11740;51.168;4.112;2023-11-21T02:28:52;7.70;26.90
23143;DHT22;11740;51.168;4.112;2023-11-21T02:31:19;7.70;53.10
23143;DHT22;11740;51.168;4.112;2023-11-21T02:33:47;7.80;78.10
23143;DHT22;11740;51.168;4.112;2023-11-21T02:36:14;7.70;42.40
23143;DHT22;11740;51.168;4.112;2023-11-21T02:38:41;7.70;13.30
23143;DHT22;11740;51.168;4.112;2023-11-21T02:41:08;7.70;24.00
23143;DHT22;11740;51.168;4.112;2023-11-21T02:43:35;7.70;35.60
23143;DHT22;11740;51.168;4.112;2023-11-21T02:46:01;7.70;12.60
23143;DHT22;11740;51.168;4.112;2023-11-21T02:48:28;7.70;23.40
23143;DHT22;11740;51.168;4.112;2023-11-21T02:50:57;7.80;39.00
23143;DHT22;11740;51.168;4.112;2023-11-21T02:53:24;7.80;48.90
23143;DHT22;11740;51.168;4.112;2023-11-21T02:55:51;7.80;98.50
23143;DHT22;11740;51.168;4.112;2023-11-21T02:58:18;7.80;54.30
23143;DHT22;11740;51.168;4.112;2023-11-21T03:00:45;7.70;27.00
23143;DHT22;11740;51.168;4.112;2023-11-21T03:03:12;7.70;14.20
23143;DHT22;11740;51.168;4.112;2023-11-21T03:05:41;7.80;55.60
23143;DHT22;11740;51.168;4.112;2023-11-21T03:08:08;7.80;47.90
23143;DHT22;11740;51.168;4.112;2023-11-21T03:10:34;7.80;57.50
23143;DHT22;11740;51.168;4.112;2023-11-21T03:13:02;7.90;90.30
23143;DHT22;11740;51.168;4.112;2023-11-21T03:15:29;7.90;91.60
23143;DHT22;11740;51.168;4.112;2023-11-21T03:17:55;7.90;93.50
23143;DHT22;11740;51.168;4.112;2023-11-21T03:20:23;7.90;99.90
23143;DHT22;11740;51.168;4.112;2023-11-21T03:22:50;7.90;99.90
23143;DHT22;11740;51.168;4.112;2023-11-21T03:25:18;7.80;96.90
23143;DHT22;11740;51.168;4.112;2023-11-21T03:27:44;7.90;99.90
23143;DHT22;11740;51.168;4.112;2023-11-21T03:30:11;7.90;99.90
23143;DHT22;11740;51.168;4.112;2023-11-21T03:32:38;7.90;99.90
23143;DHT22;11740;51.168;4.112;2023-11-21T03:35:05;8.00;99.90
23143;DHT22;11740;51.168;4.112;2023-11-21T03:37:33;8.00;99.90
23143;DHT22;11740;51.168;4.112;2023-11-21T03:40:00;8.00;99.90
23143;DHT22;11740;51.168;4.112;2023-11-21T03:42:27;8.10;99.90
23143;DHT22;11740;51.168;4.112;2023-11-21T03:44:54;8.00;99.90
23143;DHT22;11740;51.168;4.112;2023-11-21T03:47:21;8.00;99.90
23143;DHT22;11740;51.168;4.112;2023-11-21T03:49:48;8.00;99.90
23143;DHT22;11740;51.168;4.112;2023-11-21T03:52:15;8.10;99.90
23143;DHT22;11740;51.168;4.112;2023-11-21T03:54:43;8.10;99.90
23143;DHT22;11740;51.168;4.112;2023-11-21T03:57:10;8.10;99.90
23143;DHT22;11740;51.168;4.112;2023-11-21T03:59:41;8.10;99.90
23143;DHT22;11740;51.168;4.112;2023-11-21T04:02:08;8.10;99.90
23143;DHT22;11740;51.168;4.112;2023-11-21T04:04:35;8.10;99.90
23143;DHT22;11740;51.168;4.112;2023-11-21T04:07:03;8.10;99.90
23143;DHT22;11740;51.168;4.112;2023-11-21T04:09:30;8.10;99.90
23143;DHT22;11740;51.168;4.112;2023-11-21T04:11:57;8.10;99.90
23143;DHT22;11740;51.168;4.112;2023-11-21T04:14:24;8.10;99.90
23143;DHT22;11740;51.168;4.112;2023-11-21T04:16:51;8.10;99.90
23143;DHT22;11740;51.168;4.112;2023-11-21T04:19:18;8.10;99.90
23143;DHT22;11740;51.168;4.112;2023-11-21T04:21:45;8.10;99.90
23143;DHT22;11740;51.168;4.112;2023-11-21T04:24:12;8.20;99.90
23143;DHT22;11740;51.168;4.112;2023-11-21T04:26:39;8.20;99.90
23143;DHT22;11740;51.168;4.112;2023-11-21T04:29:06;8.30;99.90
23143;DHT22;11740;51.168;4.112;2023-11-21T04:31:33;8.20;99.90
23143;DHT22;11740;51.168;4.112;2023-11-21T04:34:00;8.30;99.90
23143;DHT22;11740;51.168;4.112;2023-11-21T04:36:27;8.30;99.90
23143;DHT22;11740;51.168;4.112;2023-11-21T04:38:54;8.20;99.90
23143;DHT22;11740;51.168;4.112;2023-11-21T04:41:21;8.30;99.90
23143;DHT22;11740;51.168;4.112;2023-11-21T04:43:48;8.30;99.90
23143;DHT22;11740;51.168;4.112;2023-11-21T04:46:15;8.20;99.90
23143;DHT22;11740;51.168;4.112;2023-11-21T04:48:42;8.30;99.90
23143;DHT22;11740;51.168;4.112;2023-11-21T04:51:10;8.30;99.90
23143;DHT22;11740;51.168;4.112;2023-11-21T04:53:39;8.30;99.90
23143;DHT22;11740;51.168;4.112;2023-11-21T04:56:06;8.40;99.90
23143;DHT22;11740;51.168;4.112;2023-11-21T04:58:33;8.40;99.90
23143;DHT22;11740;51.168;4.112;2023-11-21T05:01:00;8.30;99.90
23143;DHT22;11740;51.168;4.112;2023-11-21T05:03:27;8.30;99.90
23143;DHT22;11740;51.168;4.112;2023-11-21T05:05:56;8.30;99.90
23143;DHT22;11740;51.168;4.112;2023-11-21T05:08:23;8.40;99.90
23143;DHT22;11740;51.168;4.112;2023-11-21T05:10:50;8.50;99.90
23143;DHT22;11740;51.168;4.112;2023-11-21T05:13:18;8.40;99.90
23143;DHT22;11740;51.168;4.112;2023-11-21T05:15:45;8.40;99.90
23143;DHT22;11740;51.168;4.112;2023-11-21T05:18:12;8.40;99.90
23143;DHT22;11740;51.168;4.112;2023-11-21T05:20:40;8.40;99.90
23143;DHT22;11740;51.168;4.112;2023-11-21T05:23:07;8.40;99.90
23143;DHT22;11740;51.168;4.112;2023-11-21T05:25:34;8.50;99.90
23143;DHT22;11740;51.168;4.112;2023-11-21T05:28:06;8.50;99.90
23143;DHT22;11740;51.168;4.112;2023-11-21T05:30:33;8.40;99.90
23143;DHT22;11740;51.168;4.112;2023-11-21T05:33:00;8.50;99.90
23143;DHT22;11740;51.168;4.112;2023-11-21T05:35:27;8.50;99.90
23143;DHT22;11740;51.168;4.112;2023-11-21T05:37:53;8.60;99.90
23143;DHT22;11740;51.168;4.112;2023-11-21T05:40:20;8.60;99.90
23143;DHT22;11740;51.168;4.112;2023-11-21T05:42:49;8.60;99.90
23143;DHT22;11740;51.168;4.112;2023-11-21T05:45:17;8.60;99.90
23143;DHT22;11740;51.168;4.112;2023-11-21T05:47:45;8.60;99.90
23143;DHT22;11740;51.168;4.112;2023-11-21T05:50:14;8.60;99.90
23143;DHT22;11740;51.168;4.112;2023-11-21T05:52:43;8.60;99.90
23143;DHT22;11740;51.168;4.112;2023-11-21T05:55:11;8.60;99.90
23143;DHT22;11740;51.168;4.112;2023-11-21T05:57:40;8.70;99.90
23143;DHT22;11740;51.168;4.112;2023-11-21T06:00:08;8.70;99.90
23143;DHT22;11740;51.168;4.112;2023-11-21T06:02:47;8.70;99.90
23143;DHT22;11740;51.168;4.112;2023-11-21T06:05:21;8.70;99.90
23143;DHT22;11740;51.168;4.112;2023-11-21T06:07:53;8.60;99.90
23143;DHT22;11740;51.168;4.112;2023-11-21T06:10:22;8.60;99.90
23143;DHT22;11740;51.168;4.112;2023-11-21T06:12:51;8.70;99.90
23143;DHT22;11740;51.168;4.112;2023-11-21T06:15:18;8.70;99.90
23143;DHT22;11740;51.168;4.112;2023-11-21T06:17:50;8.70;99.90
23143;DHT22;11740;51.168;4.112;2023-11-21T06:20:20;8.70;99.90
23143;DHT22;11740;51.168;4.112;2023-11-21T06:22:48;8.70;99.90
23143;DHT22;11740;51.168;4.112;2023-11-21T06:25:16;8.70;99.90
23143;DHT22;11740;51.168;4.112;2023-11-21T06:27:44;8.70;99.90
23143;DHT22;11740;51.168;4.112;2023-11-21T06:30:12;8.70;99.90
23143;DHT22;11740;51.168;4.112;2023-11-21T06:32:41;8.70;99.90
23143;DHT22;11740;51.168;4.112;2023-11-21T06:35:08;8.70;99.90
23143;DHT22;11740;51.168;4.112;2023-11-21T06:37:36;8.70;99.90
23143;DHT22;11740;51.168;4.112;2023-11-21T06:40:04;8.80;99.90
23143;DHT22;11740;51.168;4.112;2023-11-21T06:42:31;8.80;99.90
23143;DHT22;11740;51.168;4.112;2023-11-21T06:45:00;8.80;99.90
23143;DHT22;11740;51.168;4.112;2023-11-21T06:47:30;8.80;99.90
23143;DHT22;11740;51.168;4.112;2023-11-21T06:49:58;8.80;99.90
23143;DHT22;11740;51.168;4.112;2023-11-21T06:52:25;8.80;99.90
23143;DHT22;11740;51.168;4.112;2023-11-21T06:54:52;8.80;99.90
23143;DHT22;11740;51.168;4.112;2023-11-21T06:57:19;8.80;99.90
23143;DHT22;11740;51.168;4.112;2023-11-21T06:59:46;8.80;99.90
23143;DHT22;11740;51.168;4.112;2023-11-21T07:02:13;8.80;99.90
23143;DHT22;11740;51.168;4.112;2023-11-21T07:04:41;8.90;99.90
23143;DHT22;11740;51.168;4.112;2023-11-21T07:07:08;8.90;99.90
23143;DHT22;11740;51.168;4.112;2023-11-21T07:09:34;8.80;99.90
23143;DHT22;11740;51.168;4.112;2023-11-21T07:12:01;8.80;99.90
23143;DHT22;11740;51.168;4.112;2023-11-21T07:14:30;8.90;99.90
23143;DHT22;11740;51.168;4.112;2023-11-21T07:16:58;8.90;99.90
23143;DHT22;11740;51.168;4.112;2023-11-21T07:19:25;9.00;99.90
23143;DHT22;11740;51.168;4.112;2023-11-21T07:21:52;8.90;99.90
23143;DHT22;11740;51.168;4.112;2023-11-21T07:24:19;9.00;99.90
23143;DHT22;11740;51.168;4.112;2023-11-21T07:26:45;9.00;99.90
23143;DHT22;11740;51.168;4.112;2023-11-21T07:29:12;9.00;99.90
23143;DHT22;11740;51.168;4.112;2023-11-21T07:31:40;9.10;99.90
23143;DHT22;11740;51.168;4.112;2023-11-21T07:34:08;9.10;99.90
23143;DHT22;11740;51.168;4.112;2023-11-21T07:36:35;9.10;99.90
23143;DHT22;11740;51.168;4.112;2023-11-21T07:39:02;9.10;99.90
23143;DHT22;11740;51.168;4.112;2023-11-21T07:41:29;9.10;1.00
23143;DHT22;11740;51.168;4.112;2023-11-21T07:43:57;9.10;99.90
23143;DHT22;11740;51.168;4.112;2023-11-21T07:46:26;9.10;99.90
23143;DHT22;11740;51.168;4.112;2023-11-21T07:48:53;9.10;99.90
23143;DHT22;11740;51.168;4.112;2023-11-21T07:51:21;9.10;99.90
23143;DHT22;11740;51.168;4.112;2023-11-21T07:53:49;9.10;99.90
23143;DHT22;11740;51.168;4.112;2023-11-21T07:56:16;9.20;1.00
23143;DHT22;11740;51.168;4.112;2023-11-21T07:58:44;9.20;1.00
23143;DHT22;11740;51.168;4.112;2023-11-21T08:01:11;9.20;1.00
23143;DHT22;11740;51.168;4.112;2023-11-21T08:03:38;9.20;99.90
23143;DHT22;11740;51.168;4.112;2023-11-21T08:06:05;9.20;99.90
23143;DHT22;11740;51.168;4.112;2023-11-21T08:08:32;9.20;99.90
23143;DHT22;11740;51.168;4.112;2023-11-21T08:10:59;9.20;1.00
23143;DHT22;11740;51.168;4.112;2023-11-21T08:13:28;9.20;1.00
23143;DHT22;11740;51.168;4.112;2023-11-21T08:15:57;9.20;99.90
23143;DHT22;11740;51.168;4.112;2023-11-21T08:18:30;9.30;1.00
23143;DHT22;11740;51.168;4.112;2023-11-21T08:20:57;9.20;1.00
23143;DHT22;11740;51.168;4.112;2023-11-21T08:23:24;9.30;1.00
23143;DHT22;11740;51.168;4.112;2023-11-21T08:25:52;9.30;1.00
23143;DHT22;11740;51.168;4.112;2023-11-21T08:28:19;9.30;1.00
23143;DHT22;11740;51.168;4.112;2023-11-21T08:30:48;9.30;1.00
23143;DHT22;11740;51.168;4.112;2023-11-21T08:33:15;9.30;1.00
23143;DHT22;11740;51.168;4.112;2023-11-21T08:35:42;9.30;1.00
23143;DHT22;11740;51.168;4.112;2023-11-21T08:38:09;9.40;1.00
23143;DHT22;11740;51.168;4.112;2023-11-21T08:40:37;9.40;1.00
23143;DHT22;11740;51.168;4.112;2023-11-21T08:43:04;9.30;99.90
23143;DHT22;11740;51.168;4.112;2023-11-21T08:45:34;9.40;99.90
23143;DHT22;11740;51.168;4.112;2023-11-21T08:48:01;9.40;99.90
23143;DHT22;11740;51.168;4.112;2023-11-21T08:50:30;9.40;99.90
23143;DHT22;11740;51.168;4.112;2023-11-21T08:52:57;9.50;99.90
23143;DHT22;11740;51.168;4.112;2023-11-21T08:55:24;9.50;99.90
23143;DHT22;11740;51.168;4.112;2023-11-21T08:57:51;9.50;99.90
23143;DHT22;11740;51.168;4.112;2023-11-21T09:00:17;9.50;99.90
23143;DHT22;11740;51.168;4.112;2023-11-21T09:02:45;9.60;99.90
23143;DHT22;11740;51.168;4.112;2023-11-21T09:05:12;9.60;99.90
23143;DHT22;11740;51.168;4.112;2023-11-21T09:07:41;9.60;99.90
23143;DHT22;11740;51.168;4.112;2023-11-21T09:10:08;9.60;99.90
23143;DHT22;11740;51.168;4.112;2023-11-21T09:12:36;9.60;99.90
23143;DHT22;11740;51.168;4.112;2023-11-21T09:15:04;9.70;99.90
23143;DHT22;11740;51.168;4.112;2023-11-21T09:17:33;9.70;99.90
23143;DHT22;11740;51.168;4.112;2023-11-21T09:20:01;9.70;99.90
23143;DHT22;11740;51.168;4.112;2023-11-21T09:22:30;9.80;99.90
23143;DHT22;11740;51.168;4.112;2023-11-21T09:24:58;9.80;99.90
23143;DHT22;11740;51.168;4.112;2023-11-21T09:27:25;9.90;99.90
23143;DHT22;11740;51.168;4.112;2023-11-21T09:29:54;9.90;1.00
23143;DHT22;11740;51.168;4.112;2023-11-21T09:32:21;10.00;1.00
23143;DHT22;11740;51.168;4.112;2023-11-21T09:34:51;10.00;1.00
23143;DHT22;11740;51.168;4.112;2023-11-21T09:37:19;10.00;99.90
23143;DHT22;11740;51.168;4.112;2023-11-21T09:39:46;10.00;99.90
23143;DHT22;11740;51.168;4.112;2023-11-21T09:42:19;10.00;99.90
23143;DHT22;11740;51.168;4.112;2023-11-21T09:44:54;10.00;99.90
23143;DHT22;11740;51.168;4.112;2023-11-21T09:47:35;10.10;1.00
23143;DHT22;11740;51.168;4.112;2023-11-21T09:50:02;10.20;99.90
23143;DHT22;11740;51.168;4.112;2023-11-21T09:52:30;10.30;99.90
23143;DHT22;11740;51.168;4.112;2023-11-21T09:54:59;10.30;1.00
23143;DHT22;11740;51.168;4.112;2023-11-21T09:57:26;10.30;1.00
23143;DHT22;11740;51.168;4.112;2023-11-21T09:59:54;10.50;99.90
23143;DHT22;11740;51.168;4.112;2023-11-21T10:02:26;10.50;99.90
23143;DHT22;11740;51.168;4.112;2023-11-21T10:04:55;10.60;99.90
23143;DHT22;11740;51.168;4.112;2023-11-21T10:07:23;10.60;99.90
23143;DHT22;11740;51.168;4.112;2023-11-21T10:09:50;10.60;99.90
23143;DHT22;11740;51.168;4.112;2023-11-21T10:12:17;10.70;99.90
23143;DHT22;11740;51.168;4.112;2023-11-21T10:14:47;10.70;99.90
23143;DHT22;11740;51.168;4.112;2023-11-21T10:17:15;10.80;99.90
23143;DHT22;11740;51.168;4.112;2023-11-21T10:19:48;10.80;99.90
23143;DHT22;11740;51.168;4.112;2023-11-21T10:22:15;10.80;99.90
23143;DHT22;11740;51.168;4.112;2023-11-21T10:24:42;10.90;99.90
23143;DHT22;11740;51.168;4.112;2023-11-21T10:27:19;10.90;99.90
23143;DHT22;11740;51.168;4.112;2023-11-21T10:29:46;10.90;99.90
23143;DHT22;11740;51.168;4.112;2023-11-21T10:32:13;10.90;99.90
23143;DHT22;11740;51.168;4.112;2023-11-21T10:34:40;10.90;99.90
23143;DHT22;11740;51.168;4.112;2023-11-21T10:37:11;10.90;99.90
23143;DHT22;11740;51.168;4.112;2023-11-21T10:39:38;10.90;99.90
23143;DHT22;11740;51.168;4.112;2023-11-21T10:42:07;10.90;99.90
23143;DHT22;11740;51.168;4.112;2023-11-21T10:44:34;11.00;99.90
23143;DHT22;11740;51.168;4.112;2023-11-21T10:47:02;11.00;99.90
23143;DHT22;11740;51.168;4.112;2023-11-21T10:49:29;11.00;99.90
23143;DHT22;11740;51.168;4.112;2023-11-21T10:51:56;11.00;99.90
23143;DHT22;11740;51.168;4.112;2023-11-21T10:54:24;11.00;73.20
23143;DHT22;11740;51.168;4.112;2023-11-21T10:56:58;11.00;60.70
23143;DHT22;11740;51.168;4.112;2023-11-21T10:59:30;11.00;66.50
23143;DHT22;11740;51.168;4.112;2023-11-21T11:01:58;11.00;41.50
23143;DHT22;11740;51.168;4.112;2023-11-21T11:04:27;11.00;1.00
23143;DHT22;11740;51.168;4.112;2023-11-21T11:06:55;11.00;1.00
23143;DHT22;11740;51.168;4.112;2023-11-21T11:09:24;11.00;1.00
23143;DHT22;11740;51.168;4.112;2023-11-21T11:11:51;11.00;1.00
23143;DHT22;11740;51.168;4.112;2023-11-21T11:14:19;11.00;1.00
23143;DHT22;11740;51.168;4.112;2023-11-21T11:16:46;11.00;1.00
23143;DHT22;11740;51.168;4.112;2023-11-21T11:19:16;11.00;1.00
23143;DHT22;11740;51.168;4.112;2023-11-21T11:27:48;11.00;1.00
23143;DHT22;11740;51.168;4.112;2023-11-21T11:30:41;11.00;1.00
23143;DHT22;11740;51.168;4.112;2023-11-21T11:38:31;11.00;1.00
23143;DHT22;11740;51.168;4.112;2023-11-21T11:41:03;11.00;1.00
23143;DHT22;11740;51.168;4.112;2023-11-21T11:43:31;11.00;1.00
23143;DHT22;11740;51.168;4.112;2023-11-21T11:46:11;11.00;1.00
23143;DHT22;11740;51.168;4.112;2023-11-21T11:48:41;11.00;1.00
23143;DHT22;11740;51.168;4.112;2023-11-21T11:51:12;11.00;1.00
23143;DHT22;11740;51.168;4.112;2023-11-21T11:53:48;11.10;1.00
23143;DHT22;11740;51.168;4.112;2023-11-21T11:56:28;11.10;1.00
23143;DHT22;11740;51.168;4.112;2023-11-21T11:59:04;11.10;1.00
23143;DHT22;11740;51.168;4.112;2023-11-21T12:01:32;11.10;1.00
23143;DHT22;11740;51.168;4.112;2023-11-21T12:06:47;11.10;1.00
23143;DHT22;11740;51.168;4.112;2023-11-21T12:09:20;11.10;1.00
23143;DHT22;11740;51.168;4.112;2023-11-21T12:11:48;11.10;1.00
23143;DHT22;11740;51.168;4.112;2023-11-21T12:14:16;11.10;1.00
23143;DHT22;11740;51.168;4.112;2023-11-21T12:16:43;11.10;1.00
23143;DHT22;11740;51.168;4.112;2023-11-21T12:19:11;11.10;1.00
23143;DHT22;11740;51.168;4.112;2023-11-21T12:21:38;11.10;1.00
23143;DHT22;11740;51.168;4.112;2023-11-21T12:24:07;11.10;1.00
23143;DHT22;11740;51.168;4.112;2023-11-21T12:26:40;11.10;1.00
23143;DHT22;11740;51.168;4.112;2023-11-21T12:29:07;11.10;1.00
23143;DHT22;11740;51.168;4.112;2023-11-21T12:31:37;11.10;1.00
23143;DHT22;11740;51.168;4.112;2023-11-21T12:34:04;11.10;1.00
23143;DHT22;11740;51.168;4.112;2023-11-21T12:36:33;11.10;1.00
23143;DHT22;11740;51.168;4.112;2023-11-21T12:39:01;11.10;1.00
23143;DHT22;11740;51.168;4.112;2023-11-21T12:41:29;11.10;1.00
23143;DHT22;11740;51.168;4.112;2023-11-21T12:43:57;11.10;1.00
23143;DHT22;11740;51.168;4.112;2023-11-21T12:46:25;11.20;1.00
23143;DHT22;11740;51.168;4.112;2023-11-21T12:48:56;11.10;13.20
23143;DHT22;11740;51.168;4.112;2023-11-21T12:51:24;11.20;19.10
23143;DHT22;11740;51.168;4.112;2023-11-21T12:53:52;11.10;18.60
23143;DHT22;11740;51.168;4.112;2023-11-21T12:56:21;11.10;23.10
23143;DHT22;11740;51.168;4.112;2023-11-21T12:58:49;11.10;16.60
23143;DHT22;11740;51.168;4.112;2023-11-21T13:01:19;11.10;6.70
23143;DHT22;11740;51.168;4.112;2023-11-21T13:03:48;11.10;1.00
23143;DHT22;11740;51.168;4.112;2023-11-21T13:06:18;11.10;1.00
23143;DHT22;11740;51.168;4.112;2023-11-21T13:08:45;11.10;1.00
23143;DHT22;11740;51.168;4.112;2023-11-21T13:11:12;11.10;1.00
23143;DHT22;11740;51.168;4.112;2023-11-21T13:13:41;11.10;1.00
23143;DHT22;11740;51.168;4.112;2023-11-21T13:16:12;11.10;1.00
23143;DHT22;11740;51.168;4.112;2023-11-21T13:18:40;11.10;1.00
23143;DHT22;11740;51.168;4.112;2023-11-21T13:21:08;11.10;1.00
23143;DHT22;11740;51.168;4.112;2023-11-21T13:23:39;11.10;1.00
23143;DHT22;11740;51.168;4.112;2023-11-21T13:26:08;11.00;1.00
23143;DHT22;11740;51.168;4.112;2023-11-21T13:28:35;11.00;1.00
23143;DHT22;11740;51.168;4.112;2023-11-21T13:31:04;11.00;1.00
23143;DHT22;11740;51.168;4.112;2023-11-21T13:33:58;11.00;1.00
23143;DHT22;11740;51.168;4.112;2023-11-21T13:36:32;11.00;1.00
23143;DHT22;11740;51.168;4.112;2023-11-21T13:39:02;11.00;99.90
23143;DHT22;11740;51.168;4.112;2023-11-21T13:41:34;11.00;99.90
23143;DHT22;11740;51.168;4.112;2023-11-21T13:44:04;11.00;99.90
23143;DHT22;11740;51.168;4.112;2023-11-21T13:46:53;10.90;99.90
23143;DHT22;11740;51.168;4.112;2023-11-21T13:49:22;10.90;99.90
23143;DHT22;11740;51.168;4.112;2023-11-21T13:51:50;10.90;99.90
23143;DHT22;11740;51.168;4.112;2023-11-21T13:54:19;10.90;99.90
23143;DHT22;11740;51.168;4.112;2023-11-21T13:56:48;10.90;99.90
23143;DHT22;11740;51.168;4.112;2023-11-21T13:59:17;10.90;99.90
23143;DHT22;11740;51.168;4.112;2023-11-21T14:01:52;10.90;99.90
23143;DHT22;11740;51.168;4.112;2023-11-21T14:04:27;10.90;43.50
23143;DHT22;11740;51.168;4.112;2023-11-21T14:06:56;10.90;12.10
23143;DHT22;11740;51.168;4.112;2023-11-21T14:09:25;10.90;1.00
23143;DHT22;11740;51.168;4.112;2023-11-21T14:11:59;10.80;1.00
23143;DHT22;11740;51.168;4.112;2023-11-21T14:14:27;10.90;1.00
23143;DHT22;11740;51.168;4.112;2023-11-21T14:16:57;10.80;1.00
23143;DHT22;11740;51.168;4.112;2023-11-21T14:19:25;10.80;1.00
23143;DHT22;11740;51.168;4.112;2023-11-21T14:21:58;10.80;1.00
23143;DHT22;11740;51.168;4.112;2023-11-21T14:24:25;10.80;1.00
23143;DHT22;11740;51.168;4.112;2023-11-21T14:26:52;10.80;1.00
23143;DHT22;11740;51.168;4.112;2023-11-21T14:29:19;10.80;1.00
23143;DHT22;11740;51.168;4.112;2023-11-21T14:31:48;10.80;1.00
23143;DHT22;11740;51.168;4.112;2023-11-21T14:34:23;10.80;1.00
23143;DHT22;11740;51.168;4.112;2023-11-21T14:36:50;10.80;1.00
23143;DHT22;11740;51.168;4.112;2023-11-21T14:39:17;10.80;1.00
23143;DHT22;11740;51.168;4.112;2023-11-21T14:41:50;10.80;1.00
23143;DHT22;11740;51.168;4.112;2023-11-21T14:44:19;10.80;1.00
23143;DHT22;11740;51.168;4.112;2023-11-21T14:46:47;10.80;1.00
23143;DHT22;11740;51.168;4.112;2023-11-21T14:49:17;10.80;1.00
23143;DHT22;11740;51.168;4.112;2023-11-21T14:51:47;10.80;1.00
23143;DHT22;11740;51.168;4.112;2023-11-21T14:54:29;10.80;1.00
23143;DHT22;11740;51.168;4.112;2023-11-21T14:57:17;10.80;1.00
23143;DHT22;11740;51.168;4.112;2023-11-21T14:59:49;10.80;1.00
23143;DHT22;11740;51.168;4.112;2023-11-21T15:02:18;10.80;1.00
23143;DHT22;11740;51.168;4.112;2023-11-21T15:05:09;10.70;1.00
23143;DHT22;11740;51.168;4.112;2023-11-21T15:07:41;10.70;1.00
23143;DHT22;11740;51.168;4.112;2023-11-21T15:10:08;10.70;1.00
23143;DHT22;11740;51.168;4.112;2023-11-21T15:12:41;10.70;1.00
23143;DHT22;11740;51.168;4.112;2023-11-21T15:15:10;10.70;1.00
23143;DHT22;11740;51.168;4.112;2023-11-21T15:17:37;10.70;1.00
23143;DHT22;11740;51.168;4.112;2023-11-21T15:20:06;10.70;1.00
23143;DHT22;11740;51.168;4.112;2023-11-21T15:22:35;10.60;1.00
23143;DHT22;11740;51.168;4.112;2023-11-21T15:25:04;10.60;1.00
23143;DHT22;11740;51.168;4.112;2023-11-21T15:27:37;10.60;1.00
23143;DHT22;11740;51.168;4.112;2023-11-21T15:30:04;10.70;1.00
23143;DHT22;11740;51.168;4.112;2023-11-21T15:32:32;10.60;1.00
23143;DHT22;11740;51.168;4.112;2023-11-21T15:34:59;10.60;1.00
23143;DHT22;11740;51.168;4.112;2023-11-21T15:37:26;10.60;1.00
23143;DHT22;11740;51.168;4.112;2023-11-21T15:39:55;10.60;1.00
23143;DHT22;11740;51.168;4.112;2023-11-21T15:42:22;10.70;1.00
23143;DHT22;11740;51.168;4.112;2023-11-21T15:44:49;10.60;1.00
23143;DHT22;11740;51.168;4.112;2023-11-21T15:47:16;10.60;1.00
23143;DHT22;11740;51.168;4.112;2023-11-21T15:49:43;10.60;1.00
23143;DHT22;11740;51.168;4.112;2023-11-21T15:52:15;10.60;1.00
23143;DHT22;11740;51.168;4.112;2023-11-21T15:54:42;10.60;1.00
23143;DHT22;11740;51.168;4.112;2023-11-21T15:57:12;10.60;1.00
23143;DHT22;11740;51.168;4.112;2023-11-21T15:59:39;10.60;1.00
23143;DHT22;11740;51.168;4.112;2023-11-21T16:02:08;10.60;1.00
23143;DHT22;11740;51.168;4.112;2023-11-21T16:04:37;10.60;1.00
23143;DHT22;11740;51.168;4.112;2023-11-21T16:07:04;10.60;1.00